createdAt,value
2017-08-17T00:02:11.686Z,99.90
2017-08-17T00:04:40.793Z,99.90
2017-08-17T00:07:09.907Z,99.90
2017-08-17T00:09:38.207Z,99.90
2017-08-17T00:12:06.670Z,99.90
2017-08-17T00:14:35.011Z,99.90
2017-08-17T00:17:04.112Z,99.90
2017-08-17T00:19:32.486Z,99.90
2017-08-17T00:22:00.832Z,99.90
2017-08-17T00:24:29.149Z,99.90
2017-08-17T00:26:57.504Z,99.90
2017-08-17T00:29:25.844Z,99.90
2017-08-17T00:31:54.175Z,99.90
2017-08-17T00:34:23.298Z,99.90
2017-08-17T00:36:51.653Z,99.90
2017-08-17T00:39:20.740Z,99.90
2017-08-17T00:41:49.934Z,99.90
2017-08-17T00:44:19.038Z,99.90
2017-08-17T00:46:47.386Z,99.90
2017-08-17T00:49:15.717Z,99.90
2017-08-17T00:51:44.058Z,99.90
2017-08-17T00:54:12.435Z,99.90
2017-08-17T00:56:41.508Z,99.90
2017-08-17T00:59:09.806Z,99.90
2017-08-17T01:01:38.897Z,99.90
2017-08-17T01:04:08.024Z,99.90
2017-08-17T01:06:36.402Z,99.90
2017-08-17T01:09:04.759Z,99.90
2017-08-17T01:11:33.159Z,99.90
2017-08-17T01:14:01.539Z,99.90
2017-08-17T01:16:29.882Z,99.90
2017-08-17T01:18:58.262Z,99.90
2017-08-17T01:21:27.454Z,99.90
2017-08-17T01:23:56.531Z,99.90
2017-08-17T01:26:24.960Z,99.90
2017-08-17T01:28:53.318Z,99.90
2017-08-17T01:31:21.709Z,99.90
2017-08-17T01:33:50.086Z,99.90
2017-08-17T01:36:18.469Z,99.90
2017-08-17T01:38:47.668Z,99.90
2017-08-17T01:41:15.971Z,99.90
2017-08-17T01:43:44.418Z,99.90
2017-08-17T01:46:13.484Z,99.90
2017-08-17T01:48:42.704Z,99.90
2017-08-17T01:51:11.900Z,99.90
2017-08-17T01:53:40.968Z,99.90
2017-08-17T01:56:09.270Z,99.90
2017-08-17T01:58:38.368Z,99.90
2017-08-17T02:01:07.435Z,99.90
2017-08-17T02:03:35.865Z,99.90
2017-08-17T02:06:04.171Z,99.90
2017-08-17T02:08:32.595Z,99.90
2017-08-17T02:11:01.662Z,99.90
2017-08-17T02:13:30.799Z,99.90
2017-08-17T02:27:13.682Z,99.90
2017-08-17T02:29:42.149Z,99.90
2017-08-17T02:32:11.222Z,99.90
2017-08-17T02:34:40.965Z,99.90
2017-08-17T02:37:09.328Z,99.90
2017-08-17T02:39:38.541Z,99.90
2017-08-17T02:42:07.664Z,99.90
2017-08-17T02:44:35.963Z,99.90
2017-08-17T02:47:04.290Z,99.90
2017-08-17T02:49:32.658Z,99.90
2017-08-17T02:52:00.980Z,99.90
2017-08-17T02:54:29.279Z,99.90
2017-08-17T02:56:57.677Z,99.90
2017-08-17T02:59:26.887Z,99.90
2017-08-17T03:01:55.262Z,99.90
2017-08-17T03:04:23.638Z,99.90
2017-08-17T03:06:52.018Z,99.90
2017-08-17T03:09:20.396Z,99.90
2017-08-17T03:11:49.521Z,99.90
2017-08-17T03:14:17.850Z,99.90
2017-08-17T03:16:47.094Z,99.90
2017-08-17T03:19:15.444Z,99.90
2017-08-17T03:21:44.525Z,99.90
2017-08-17T03:24:12.874Z,99.90
2017-08-17T03:26:41.178Z,99.90
2017-08-17T03:29:09.487Z,99.90
2017-08-17T03:31:37.839Z,99.90
2017-08-17T03:34:06.918Z,99.90
2017-08-17T03:36:36.182Z,99.90
2017-08-17T03:39:04.482Z,99.90
2017-08-17T03:41:32.912Z,99.90
2017-08-17T03:44:01.263Z,99.90
2017-08-17T03:46:30.358Z,99.90
2017-08-17T03:48:58.734Z,99.90
2017-08-17T03:51:27.854Z,99.90
2017-08-17T03:53:56.194Z,99.90
2017-08-17T03:56:24.596Z,99.90
2017-08-17T03:58:52.988Z,99.90
2017-08-17T04:01:21.315Z,99.90
2017-08-17T04:03:49.739Z,99.90
2017-08-17T04:06:18.909Z,99.90
2017-08-17T04:08:47.247Z,99.90
2017-08-17T04:11:15.837Z,99.90
2017-08-17T04:13:44.282Z,99.90
2017-08-17T04:16:12.664Z,99.90
2017-08-17T04:18:41.054Z,99.90
2017-08-17T04:21:09.508Z,99.90
2017-08-17T04:23:37.918Z,99.90
2017-08-17T04:26:12.130Z,99.90
2017-08-17T04:28:40.485Z,99.90
2017-08-17T04:31:08.862Z,99.90
2017-08-17T04:33:37.209Z,99.90
2017-08-17T04:36:06.443Z,99.90
2017-08-17T04:38:34.817Z,99.90
2017-08-17T04:41:04.114Z,99.90
2017-08-17T04:43:33.175Z,99.90
2017-08-17T04:46:01.575Z,99.90
2017-08-17T04:48:30.038Z,99.90
2017-08-17T04:50:58.342Z,99.90
2017-08-17T04:53:27.539Z,99.90
2017-08-17T04:55:55.874Z,99.90
2017-08-17T04:58:41.827Z,99.90
2017-08-17T05:01:10.176Z,99.90
2017-08-17T05:03:38.627Z,99.90
2017-08-17T05:06:06.938Z,99.90
2017-08-17T05:08:35.266Z,99.90
2017-08-17T05:11:04.527Z,99.90
2017-08-17T05:13:32.854Z,99.90
2017-08-17T05:16:01.183Z,99.90
2017-08-17T05:18:29.819Z,99.90
2017-08-17T05:20:58.227Z,99.90
2017-08-17T05:23:27.306Z,99.90
2017-08-17T05:25:56.523Z,99.90
2017-08-17T05:28:25.714Z,99.90
2017-08-17T05:30:54.783Z,99.90
2017-08-17T05:33:23.898Z,99.90
2017-08-17T05:35:52.968Z,99.90
2017-08-17T05:38:21.322Z,99.90
2017-08-17T05:40:49.716Z,99.90
2017-08-17T05:43:18.203Z,99.90
2017-08-17T05:45:47.294Z,99.90
2017-08-17T05:48:15.928Z,99.90
2017-08-17T05:50:44.240Z,99.90
2017-08-17T05:53:12.578Z,99.90
2017-08-17T05:55:40.910Z,99.90
2017-08-17T05:58:09.219Z,99.90
2017-08-17T06:00:44.807Z,99.90
2017-08-17T06:03:15.489Z,99.90
2017-08-17T06:05:43.987Z,99.90
2017-08-17T06:08:12.367Z,99.90
2017-08-17T06:10:40.765Z,99.90
2017-08-17T06:13:09.075Z,99.90
2017-08-17T06:15:37.503Z,99.90
2017-08-17T06:18:05.829Z,99.90
2017-08-17T06:20:34.358Z,99.90
2017-08-17T06:23:03.426Z,99.90
2017-08-17T06:25:32.563Z,99.90
2017-08-17T06:28:00.924Z,99.90
2017-08-17T06:30:30.017Z,99.90
2017-08-17T06:32:59.124Z,99.90
2017-08-17T06:35:27.448Z,99.90
2017-08-17T06:37:55.781Z,99.90
2017-08-17T06:40:24.149Z,99.90
2017-08-17T06:42:53.538Z,99.90
2017-08-17T06:45:22.542Z,99.90
2017-08-17T06:47:50.911Z,99.90
2017-08-17T06:50:19.286Z,99.90
2017-08-17T06:52:47.631Z,99.90
2017-08-17T06:55:16.762Z,99.90
2017-08-17T06:57:45.103Z,99.90
2017-08-17T07:00:13.443Z,99.90
2017-08-17T07:02:41.744Z,99.90
2017-08-17T07:05:10.065Z,99.90
2017-08-17T07:07:38.422Z,99.90
2017-08-17T07:10:07.544Z,99.90
2017-08-17T07:12:36.612Z,99.90
2017-08-17T07:15:04.955Z,99.90
2017-08-17T07:17:33.287Z,99.90
2017-08-17T07:20:02.380Z,99.90
2017-08-17T07:22:30.730Z,99.90
2017-08-17T07:24:59.039Z,99.90
2017-08-17T07:27:28.174Z,99.90
2017-08-17T07:29:56.621Z,99.90
2017-08-17T07:32:25.731Z,99.90
2017-08-17T07:34:54.797Z,99.90
2017-08-17T07:37:23.291Z,99.90
2017-08-17T07:39:51.620Z,99.90
2017-08-17T07:42:19.954Z,99.90
2017-08-17T07:44:48.286Z,99.90
2017-08-17T07:47:16.880Z,99.90
2017-08-17T07:49:45.188Z,99.90
2017-08-17T07:52:13.572Z,99.90
2017-08-17T07:54:41.945Z,99.90
2017-08-17T07:57:10.282Z,99.90
2017-08-17T07:59:38.651Z,99.90
2017-08-17T08:02:06.952Z,99.90
2017-08-17T08:04:35.469Z,99.90
2017-08-17T08:07:03.839Z,99.90
2017-08-17T08:09:32.405Z,99.90
2017-08-17T08:12:00.740Z,99.90
2017-08-17T08:14:29.274Z,99.90
2017-08-17T08:16:57.723Z,99.90
2017-08-17T08:19:26.835Z,99.90
2017-08-17T08:21:55.173Z,99.90
2017-08-17T09:54:12.103Z,99.90
2017-08-17T09:56:41.205Z,99.90
2017-08-17T09:59:09.576Z,99.90
2017-08-17T10:01:38.484Z,99.90
2017-08-17T10:04:06.844Z,99.90
2017-08-17T10:06:35.935Z,99.90
2017-08-17T10:09:05.162Z,99.90
2017-08-17T10:11:33.498Z,99.90
2017-08-17T10:14:01.891Z,99.90
2017-08-17T10:16:30.226Z,99.90
2017-08-17T10:18:58.687Z,99.90
2017-08-17T10:21:27.019Z,99.90
2017-08-17T10:23:56.131Z,99.60
2017-08-17T10:26:24.507Z,99.60
2017-08-17T10:28:52.974Z,98.90
2017-08-17T10:31:21.339Z,98.80
2017-08-17T10:33:49.709Z,98.60
2017-08-17T10:36:18.942Z,98.40
2017-08-17T10:38:47.419Z,98.40
2017-08-17T10:41:15.895Z,98.80
2017-08-17T10:43:44.305Z,99.20
2017-08-17T10:46:12.635Z,98.70
2017-08-17T10:48:41.044Z,98.80
2017-08-17T10:51:09.379Z,98.30
2017-08-17T10:53:38.506Z,96.70
2017-08-17T10:56:07.897Z,96.10
2017-08-17T10:58:37.236Z,96.10
2017-08-17T11:01:05.531Z,96.00
2017-08-17T11:03:33.873Z,94.60
2017-08-17T11:06:02.264Z,94.10
2017-08-17T11:08:30.578Z,92.90
2017-08-17T11:10:58.938Z,92.50
2017-08-17T11:13:27.231Z,91.30
2017-08-17T11:15:55.557Z,90.00
2017-08-17T11:18:23.860Z,89.30
2017-08-17T11:20:52.223Z,88.00
2017-08-17T11:23:20.567Z,86.50
2017-08-17T11:25:49.182Z,84.30
2017-08-17T11:28:17.493Z,83.90
2017-08-17T11:30:45.923Z,83.10
2017-08-17T11:33:14.807Z,83.30
2017-08-17T11:35:43.184Z,83.40
2017-08-17T11:38:11.504Z,81.10
2017-08-17T11:40:39.836Z,80.90
2017-08-17T11:43:08.918Z,76.80
2017-08-17T11:45:37.987Z,73.40
2017-08-17T11:48:07.108Z,73.40
2017-08-17T11:50:36.211Z,73.00
2017-08-17T11:53:05.282Z,74.70
2017-08-17T11:55:33.601Z,74.70
2017-08-17T11:58:03.079Z,73.30
2017-08-17T12:00:31.579Z,73.00
2017-08-17T12:03:00.642Z,73.40
2017-08-17T12:05:28.939Z,73.30
2017-08-17T12:07:57.292Z,73.30
2017-08-17T12:10:26.404Z,73.60
2017-08-17T12:12:54.719Z,73.50
2017-08-17T12:15:23.076Z,73.10
2017-08-17T12:17:52.171Z,74.60
2017-08-17T12:20:20.531Z,74.40
2017-08-17T12:22:49.660Z,72.50
2017-08-17T12:25:18.118Z,72.50
2017-08-17T12:27:47.418Z,71.30
2017-08-17T12:30:16.487Z,71.40
2017-08-17T12:32:44.780Z,71.40
2017-08-17T12:35:13.156Z,72.70
2017-08-17T12:37:42.236Z,73.90
2017-08-17T12:40:10.620Z,73.80
2017-08-17T12:42:38.926Z,72.40
2017-08-17T12:45:07.292Z,73.20
2017-08-17T12:47:35.620Z,72.20
2017-08-17T12:50:04.148Z,73.70
2017-08-17T12:52:33.254Z,72.10
2017-08-17T12:55:01.585Z,72.10
2017-08-17T12:57:29.899Z,71.80
2017-08-17T12:59:58.986Z,70.40
2017-08-17T13:02:28.089Z,70.50
2017-08-17T13:04:56.471Z,70.50
2017-08-17T13:07:24.813Z,70.50
2017-08-17T13:09:54.017Z,69.30
2017-08-17T13:12:22.328Z,69.20
2017-08-17T13:14:50.654Z,70.30
2017-08-17T13:17:18.972Z,71.60
2017-08-17T13:19:48.171Z,73.00
2017-08-17T13:22:16.548Z,72.90
2017-08-17T13:24:44.932Z,73.90
2017-08-17T13:27:13.222Z,72.00
2017-08-17T13:29:41.543Z,71.70
2017-08-17T13:32:09.914Z,71.40
2017-08-17T13:34:38.745Z,71.90
2017-08-17T13:37:07.807Z,73.00
2017-08-17T13:39:37.216Z,72.40
2017-08-17T13:42:05.517Z,72.10
2017-08-17T13:44:34.587Z,72.50
2017-08-17T13:47:02.894Z,72.40
2017-08-17T13:49:31.369Z,72.70
2017-08-17T13:52:00.633Z,71.90
2017-08-17T13:54:30.396Z,71.70
2017-08-17T13:56:58.767Z,70.90
2017-08-17T13:59:27.078Z,70.70
2017-08-17T14:01:55.711Z,71.90
2017-08-17T14:04:24.093Z,72.10
2017-08-17T14:06:53.202Z,72.20
2017-08-17T14:09:21.491Z,72.40
2017-08-17T14:11:49.982Z,73.20
2017-08-17T14:14:18.330Z,73.50
2017-08-17T14:16:46.794Z,74.60
2017-08-17T14:19:15.880Z,76.90
2017-08-17T14:21:44.954Z,78.10
2017-08-17T14:24:13.273Z,78.00
2017-08-17T14:26:42.342Z,79.20
2017-08-17T14:29:10.759Z,79.20
2017-08-17T14:31:39.101Z,78.80
2017-08-17T14:34:08.230Z,82.30
2017-08-17T14:36:37.162Z,82.20
2017-08-17T14:39:05.532Z,82.80
2017-08-17T14:41:33.865Z,81.90
2017-08-17T14:44:02.344Z,82.80
2017-08-17T14:46:30.678Z,84.70
2017-08-17T14:48:58.997Z,85.50
2017-08-17T14:51:27.407Z,85.70
2017-08-17T14:53:55.856Z,85.10
2017-08-17T14:56:24.231Z,87.20
2017-08-17T14:58:52.610Z,86.40
2017-08-17T15:01:20.964Z,85.40
2017-08-17T15:03:49.299Z,84.80
2017-08-17T15:06:17.735Z,84.70
2017-08-17T15:08:46.121Z,84.30
2017-08-17T15:11:14.455Z,84.20
2017-08-17T15:13:42.739Z,84.20
2017-08-17T15:16:11.326Z,83.70
2017-08-17T15:18:39.648Z,83.40
2017-08-17T15:21:07.951Z,81.50
2017-08-17T15:23:36.324Z,82.80
2017-08-17T15:26:04.627Z,83.70
2017-08-17T15:28:33.038Z,84.50
2017-08-17T15:31:02.123Z,85.60
2017-08-17T15:33:30.470Z,85.60
2017-08-17T15:35:58.758Z,86.00
2017-08-17T15:38:28.025Z,86.80
2017-08-17T15:40:56.356Z,86.80
2017-08-17T15:43:24.642Z,87.50
2017-08-17T15:45:53.741Z,88.80
2017-08-17T15:48:22.083Z,88.80
2017-08-17T15:50:51.208Z,90.00
2017-08-17T15:53:19.526Z,90.00
2017-08-17T15:55:47.970Z,90.40
2017-08-17T15:58:17.944Z,91.00
2017-08-17T16:00:46.275Z,91.00
2017-08-17T16:03:14.635Z,91.00
2017-08-17T16:05:43.989Z,92.20
2017-08-17T16:08:15.263Z,92.20
2017-08-17T16:10:43.723Z,92.80
2017-08-17T16:13:12.035Z,93.70
2017-08-17T16:15:41.123Z,96.10
2017-08-17T16:18:10.243Z,95.10
2017-08-17T16:20:38.560Z,95.10
2017-08-17T16:23:06.929Z,96.00
2017-08-17T16:25:35.239Z,96.50
2017-08-17T16:28:03.582Z,95.00
2017-08-17T16:30:31.886Z,96.70
2017-08-17T16:33:00.236Z,98.70
2017-08-17T16:35:28.562Z,98.60
2017-08-17T16:37:56.918Z,99.80
2017-08-17T16:40:25.234Z,99.90
2017-08-17T16:42:53.627Z,99.90
2017-08-17T16:45:21.988Z,99.90
2017-08-17T16:47:50.488Z,99.90
2017-08-17T16:50:18.809Z,99.90
2017-08-17T16:52:47.915Z,99.90
2017-08-17T16:55:16.292Z,99.90
2017-08-17T16:57:45.388Z,99.90
2017-08-17T17:00:13.747Z,99.90
2017-08-17T17:02:42.069Z,99.90
2017-08-17T17:05:10.439Z,99.90
2017-08-17T17:07:38.895Z,99.90
2017-08-17T17:10:07.283Z,99.90
2017-08-17T17:12:35.648Z,99.90
2017-08-17T17:15:04.033Z,99.90
2017-08-17T17:17:33.112Z,99.90
2017-08-17T17:20:02.455Z,99.90
2017-08-17T17:22:30.767Z,99.90
2017-08-17T17:24:59.182Z,99.90
2017-08-17T17:27:28.344Z,99.90
2017-08-17T17:29:56.651Z,99.90
2017-08-17T17:32:25.781Z,99.90
2017-08-17T17:34:54.183Z,99.90
2017-08-17T17:37:22.516Z,99.90
2017-08-17T17:39:51.629Z,99.90
2017-08-17T17:42:19.960Z,99.90
2017-08-17T17:44:49.062Z,99.90
2017-08-17T17:47:17.411Z,99.90
2017-08-17T17:49:45.753Z,99.90
2017-08-17T17:52:14.248Z,99.90
2017-08-17T17:54:42.606Z,99.90
2017-08-17T17:57:10.955Z,99.90
2017-08-17T17:59:39.334Z,99.90
2017-08-17T18:02:07.682Z,99.90
2017-08-17T18:04:36.114Z,99.90
2017-08-17T18:07:04.658Z,99.90
2017-08-17T18:09:33.179Z,99.90
2017-08-17T18:12:01.490Z,99.90
2017-08-17T18:14:29.839Z,99.90
2017-08-17T18:16:58.183Z,99.90
2017-08-17T18:19:26.541Z,99.90
2017-08-17T18:21:54.893Z,99.90
2017-08-17T18:24:23.211Z,99.90
2017-08-17T18:26:51.955Z,99.90
2017-08-17T18:29:20.262Z,99.90
2017-08-17T18:31:48.679Z,99.90
2017-08-17T18:34:17.792Z,99.90
2017-08-17T18:36:46.162Z,99.90
2017-08-17T18:39:15.345Z,99.90
2017-08-17T18:41:43.650Z,99.90
2017-08-17T18:44:12.339Z,99.90
2017-08-17T18:46:40.756Z,99.90
2017-08-17T18:49:09.924Z,99.90
2017-08-17T18:51:38.251Z,99.90
2017-08-17T18:54:06.670Z,99.90
2017-08-17T18:56:35.031Z,99.90
2017-08-17T18:59:04.131Z,99.90
2017-08-17T19:01:32.463Z,99.90
2017-08-17T19:04:00.919Z,99.90
2017-08-17T19:06:29.355Z,99.90
2017-08-17T19:08:58.479Z,99.90
2017-08-17T19:11:26.833Z,99.90
2017-08-17T19:13:55.153Z,99.90
2017-08-17T19:16:23.491Z,99.90
2017-08-17T19:18:52.100Z,99.90
2017-08-17T19:21:20.419Z,99.90
2017-08-17T19:23:49.977Z,99.90
2017-08-17T19:26:18.299Z,99.90
2017-08-17T19:28:46.703Z,99.90
2017-08-17T19:31:15.021Z,99.90
2017-08-17T19:33:43.459Z,99.90
2017-08-17T19:36:11.798Z,99.90
2017-08-17T19:38:40.119Z,99.90
2017-08-17T19:41:09.231Z,99.90
2017-08-17T19:43:37.574Z,99.90
2017-08-17T19:46:05.986Z,99.90
2017-08-17T19:48:34.780Z,99.90
2017-08-17T19:51:03.104Z,99.90
2017-08-17T19:53:31.396Z,99.90
2017-08-17T19:56:00.495Z,99.90
2017-08-17T19:58:29.697Z,99.90
2017-08-17T20:00:58.051Z,99.90
2017-08-17T20:03:26.383Z,99.90
2017-08-17T20:05:54.818Z,99.90
2017-08-17T20:08:23.919Z,99.90
2017-08-17T20:10:53.032Z,99.90
2017-08-17T20:13:21.400Z,99.90
2017-08-17T20:15:50.507Z,99.90
2017-08-17T20:18:19.208Z,99.90
2017-08-17T20:20:48.184Z,99.90
2017-08-17T20:23:16.536Z,99.90
2017-08-17T20:25:44.959Z,99.90
2017-08-17T20:28:13.358Z,99.90
2017-08-17T20:30:42.836Z,99.90
2017-08-17T20:33:11.401Z,99.90
2017-08-17T20:35:40.416Z,99.90
2017-08-17T20:38:08.872Z,99.90
2017-08-17T20:40:37.949Z,99.90
2017-08-17T20:43:06.296Z,99.90
2017-08-17T20:45:34.703Z,99.90
2017-08-17T20:48:03.301Z,99.90
2017-08-17T20:50:32.374Z,99.90
2017-08-17T20:53:00.671Z,99.90
2017-08-17T20:55:29.055Z,99.90
2017-08-17T20:57:58.140Z,99.90
2017-08-17T21:00:26.536Z,99.90
2017-08-17T21:02:54.863Z,99.90
2017-08-17T21:05:23.378Z,99.90
2017-08-17T21:07:52.476Z,99.90
2017-08-17T21:10:21.567Z,99.90
2017-08-17T21:12:50.796Z,99.90
2017-08-17T21:15:19.142Z,99.90
2017-08-17T21:17:47.486Z,99.90
2017-08-17T21:20:17.342Z,99.90
2017-08-17T21:22:45.825Z,99.90
2017-08-17T21:25:14.149Z,99.90
2017-08-17T21:27:42.778Z,99.90
2017-08-17T21:30:11.115Z,99.90
2017-08-17T21:32:39.424Z,99.90
2017-08-17T21:35:08.523Z,99.90
2017-08-17T21:37:37.609Z,99.90
2017-08-17T21:40:05.985Z,99.90
2017-08-17T21:42:34.336Z,99.90
2017-08-17T21:45:02.739Z,99.90
2017-08-17T21:47:31.047Z,99.90
2017-08-17T21:49:59.423Z,99.90
2017-08-17T21:52:27.736Z,99.90
2017-08-17T21:54:56.264Z,99.90
2017-08-17T21:57:25.318Z,99.90
2017-08-17T21:59:53.630Z,99.90
2017-08-17T22:02:22.722Z,99.90
2017-08-17T22:04:51.804Z,99.90
2017-08-17T22:07:20.917Z,99.90
2017-08-17T22:09:49.246Z,99.90
2017-08-17T22:12:17.693Z,99.90
2017-08-17T22:14:46.068Z,99.90
2017-08-17T22:17:14.526Z,99.90
2017-08-17T22:19:43.614Z,99.90
2017-08-17T22:22:11.998Z,99.90
2017-08-17T22:24:40.384Z,99.90
2017-08-17T22:27:08.682Z,99.90
2017-08-17T22:29:37.043Z,99.90
2017-08-17T22:32:05.358Z,99.90
2017-08-17T22:34:33.689Z,99.90
2017-08-17T22:37:02.768Z,99.90
2017-08-17T22:39:31.890Z,99.90
2017-08-17T22:42:00.194Z,99.90
2017-08-17T22:44:28.647Z,99.90
2017-08-17T22:46:57.019Z,99.90
2017-08-17T22:49:25.502Z,99.90
2017-08-17T22:51:53.815Z,99.90
2017-08-17T22:54:22.117Z,99.90
2017-08-17T22:56:50.526Z,99.90
2017-08-17T22:59:18.834Z,99.90
2017-08-17T23:01:47.195Z,99.90
2017-08-17T23:04:15.526Z,99.90
2017-08-17T23:06:45.555Z,99.90
2017-08-17T23:09:14.679Z,99.90
2017-08-17T23:11:43.775Z,99.90
2017-08-17T23:14:12.163Z,99.90
2017-08-17T23:16:40.719Z,99.90
2017-08-17T23:19:09.827Z,99.90
2017-08-17T23:21:38.708Z,99.90
2017-08-17T23:24:07.811Z,99.90
2017-08-17T23:26:36.137Z,99.90
2017-08-17T23:29:04.562Z,99.90
2017-08-17T23:31:32.939Z,99.90
2017-08-17T23:34:01.291Z,99.90
2017-08-17T23:36:29.619Z,99.90
2017-08-17T23:38:57.961Z,99.90
2017-08-17T23:41:27.799Z,99.90
2017-08-17T23:43:56.266Z,99.90
2017-08-17T23:46:24.579Z,99.90
2017-08-17T23:48:53.015Z,99.90
2017-08-17T23:51:21.390Z,99.90
2017-08-17T23:53:49.719Z,99.90
2017-08-17T23:56:18.043Z,99.90
2017-08-17T23:58:47.153Z,99.90
